Time;durP1;ratioP1;P1;durP2;ratioP2;P2;SDS_P1;SDS_P2;PMS_P1;PMS_P2;Temp;Humidity;BMP_temperature;BMP_pressure;BME280_temperature;BME280_humidity;BME280_pressure;Samples;Min_cycle;Max_cycle;Signal;HPM_P1;HPM_P2
2022/01/08 02:48:23;;;;;;;2.70;0.90;;;;;;;4.97;61.16;99083.28;1087514;54;20365;-81
2022/01/08 02:49:25;;;;;;;2.38;0.90;;;;;;;4.82;61.67;99086.28;1087651;54;20030;-78
2022/01/08 02:50:29;;;;;;;3.03;1.00;;;;;;;4.78;61.92;99087.53;1089916;39;20294;-81
2022/01/08 02:51:33;;;;;;;3.90;1.30;;;;;;;4.70;61.95;99084.69;1087691;54;20057;-81
2022/01/08 02:52:41;;;;;;;3.00;1.00;;;;;;;4.61;62.44;99080.19;1087777;54;20111;-81
2022/01/08 02:53:43;;;;;;;4.20;1.80;;;;;;;4.46;63.29;99080.50;1087555;54;20741;-81
2022/01/08 02:54:49;;;;;;;3.08;1.10;;;;;;;4.50;62.90;99079.28;1087609;54;20061;-81
2022/01/08 02:55:51;;;;;;;3.80;1.15;;;;;;;4.44;63.21;99074.47;1087647;54;20031;-80
2022/01/08 02:56:55;;;;;;;6.28;1.92;;;;;;;4.21;64.02;99071.13;1087636;54;20034;-80
2022/01/08 02:57:57;;;;;;;3.00;1.00;;;;;;;4.27;64.05;99073.25;1087633;54;20057;-80
2022/01/08 02:59:01;;;;;;;4.55;1.42;;;;;;;4.18;64.73;99061.63;1087567;54;20077;-81
2022/01/08 03:00:08;;;;;;;3.83;1.20;;;;;;;4.14;64.93;99062.88;1087704;54;20812;-81
2022/01/08 03:01:09;;;;;;;2.85;1.10;;;;;;;4.19;64.78;99059.84;1088003;46;20039;-82
2022/01/08 03:02:13;;;;;;;3.65;1.20;;;;;;;4.23;64.82;99053.31;1087997;46;20039;-80
2022/01/08 03:03:15;;;;;;;4.18;1.38;;;;;;;4.17;65.02;99052.00;1087776;54;20041;-81
2022/01/08 03:04:22;;;;;;;5.05;1.30;;;;;;;4.15;65.43;99053.97;1087706;54;20042;-81
2022/01/08 03:05:24;;;;;;;3.00;1.25;;;;;;;4.23;65.10;99055.97;1087617;54;20057;-81
2022/01/08 03:06:28;;;;;;;4.03;1.17;;;;;;;4.13;65.36;99045.31;1087701;54;20034;-82
2022/01/08 03:07:32;;;;;;;4.38;1.25;;;;;;;4.12;65.54;99043.63;1087717;54;20034;-80
2022/01/08 03:08:34;;;;;;;6.30;1.40;;;;;;;4.12;65.60;99041.00;1087587;54;20113;-81
2022/01/08 03:09:41;;;;;;;2.25;0.90;;;;;;;4.14;65.24;99047.00;1087587;54;20034;-80
2022/01/08 03:10:42;;;;;;;4.00;1.42;;;;;;;4.08;65.58;99034.25;1087615;54;20038;-81
2022/01/08 03:11:47;;;;;;;4.00;1.30;;;;;;;4.19;65.42;99036.84;1087609;54;20039;-80
2022/01/08 03:12:49;;;;;;;3.33;1.08;;;;;;;4.09;65.70;99028.00;1087703;54;20065;-81
2022/01/08 03:13:53;;;;;;;3.88;1.13;;;;;;;4.11;65.84;99022.63;1087657;54;20041;-81
2022/01/08 03:14:55;;;;;;;4.13;1.30;;;;;;;4.10;65.92;99027.06;1087550;54;20030;-80
2022/01/08 03:15:59;;;;;;;4.63;1.20;;;;;;;4.13;65.65;99023.31;1087683;54;20030;-81
2022/01/08 03:17:00;;;;;;;3.00;1.20;;;;;;;4.12;65.85;99016.31;1087662;54;20815;-81
2022/01/08 03:18:05;;;;;;;4.88;1.60;;;;;;;4.04;65.94;99024.94;1087655;54;20034;-81
2022/01/08 03:19:14;;;;;;;4.35;1.40;;;;;;;4.03;66.18;99025.88;1087747;54;20038;-82
2022/01/08 03:20:19;;;;;;;3.58;1.30;;;;;;;3.95;66.21;99020.41;1087651;54;20027;-80
2022/01/08 03:21:23;;;;;;;3.88;1.17;;;;;;;4.07;66.03;99019.34;1089980;39;20672;-81
2022/01/08 03:22:25;;;;;;;3.78;1.25;;;;;;;3.97;66.41;99019.31;1087748;54;20034;-80
2022/01/08 03:23:37;;;;;;;4.65;1.73;;;;;;;3.93;66.57;99012.56;1087574;54;20139;-81
2022/01/08 03:24:39;;;;;;;3.00;1.13;;;;;;;3.95;66.66;99023.06;1087658;54;20038;-81
2022/01/08 03:25:43;;;;;;;3.45;1.42;;;;;;;4.05;66.27;99016.84;1088628;39;20556;-81
2022/01/08 03:26:45;;;;;;;3.65;1.38;;;;;;;4.04;66.35;99022.28;1087630;54;20043;-82
2022/01/08 03:27:53;;;;;;;3.10;1.20;;;;;;;4.12;66.14;99016.31;1087781;54;20710;-82
2022/01/08 03:28:55;;;;;;;5.60;1.48;;;;;;;4.06;65.95;99017.72;1087609;54;20038;-81
2022/01/08 03:29:59;;;;;;;4.75;1.30;;;;;;;4.15;65.84;99016.94;1087540;54;21030;-80
2022/01/08 03:31:01;;;;;;;6.63;1.30;;;;;;;4.13;66.37;99012.72;1087715;54;20034;-81
2022/01/08 03:32:06;;;;;;;6.22;1.23;;;;;;;4.08;66.25;99015.75;1087780;54;20041;-82
2022/01/08 03:33:08;;;;;;;3.90;1.17;;;;;;;4.03;66.68;99023.25;1087400;54;20073;-80
2022/01/08 03:34:12;;;;;;;3.35;0.93;;;;;;;4.12;66.38;99011.91;1087420;54;20039;-80
2022/01/08 03:35:14;;;;;;;3.65;1.20;;;;;;;4.05;66.85;99018.66;1133686;36;20050;-81
2022/01/08 03:36:22;;;;;;;4.45;1.15;;;;;;;4.07;66.90;99022.00;1087220;54;20046;-81
2022/01/08 03:37:23;;;;;;;4.22;1.05;;;;;;;4.11;66.67;99010.22;1087828;46;20046;-82
2022/01/08 03:38:28;;;;;;;3.92;1.17;;;;;;;4.16;66.72;99012.47;1087414;54;20088;-81
2022/01/08 03:39:29;;;;;;;4.25;1.38;;;;;;;4.17;66.68;99011.50;1087187;54;20053;-81
2022/01/08 03:40:33;;;;;;;5.00;1.10;;;;;;;4.22;66.87;99011.94;1087232;54;20066;-81
2022/01/08 03:41:35;;;;;;;3.33;1.20;;;;;;;4.02;67.33;99016.28;1087276;54;20046;-81
2022/01/08 03:42:39;;;;;;;4.53;1.50;;;;;;;4.01;67.83;99011.94;1090463;39;20590;-82
2022/01/08 03:43:41;;;;;;;3.92;1.10;;;;;;;4.09;67.37;99017.44;1087286;54;20678;-82
2022/01/08 03:44:45;;;;;;;4.75;1.80;;;;;;;3.93;67.88;99017.03;1087220;54;20059;-81
2022/01/08 03:45:46;;;;;;;3.50;1.20;;;;;;;3.97;68.34;99016.66;1087253;54;20030;-81
2022/01/08 03:46:50;;;;;;;3.30;1.13;;;;;;;4.04;68.12;99019.63;1087328;54;20061;-81
2022/01/08 03:48:17;;;;;;;3.17;1.20;;;;;;;4.01;68.21;99020.75;1086735;54;20031;-80
2022/01/08 03:49:29;;;;;;;4.40;1.38;;;;;;;4.01;68.50;99025.16;1087632;39;20729;-80
2022/01/08 03:50:39;;;;;;;4.05;1.20;;;;;;;4.09;68.63;99025.38;1088909;39;21302;-80
2022/01/08 03:51:46;;;;;;;5.32;1.35;;;;;;;4.16;68.13;99026.53;1087313;54;20721;-81
2022/01/08 03:52:48;;;;;;;4.32;1.40;;;;;;;3.97;69.08;99026.41;1087288;54;20058;-80
2022/01/08 03:53:52;;;;;;;4.25;1.30;;;;;;;3.95;69.38;99033.63;1087346;54;20120;-82
2022/01/08 03:54:54;;;;;;;2.85;1.13;;;;;;;3.90;69.68;99026.91;1087747;46;20030;-81
2022/01/08 03:55:58;;;;;;;2.92;1.20;;;;;;;3.99;69.46;99035.03;1087534;54;20030;-81
2022/01/08 03:56:59;;;;;;;4.38;1.30;;;;;;;3.98;69.68;99036.00;1087647;54;20046;-81
2022/01/08 03:58:03;;;;;;;6.75;1.70;;;;;;;3.83;70.95;99033.66;1087778;54;20083;-81
2022/01/08 03:59:07;;;;;;;3.65;1.20;;;;;;;3.81;71.06;99032.94;1087747;54;20031;-81
2022/01/08 04:00:13;;;;;;;3.33;1.08;;;;;;;3.82;71.57;99024.06;1087796;54;20019;-81
2022/01/08 04:01:14;;;;;;;3.47;1.30;;;;;;;3.72;72.49;99028.41;1087701;54;20746;-81
2022/01/08 04:02:19;;;;;;;5.43;1.65;;;;;;;3.70;72.70;99028.56;1092567;39;20330;-82
2022/01/08 04:03:23;;;;;;;3.15;1.05;;;;;;;3.66;73.05;99031.56;1087725;54;20018;-82
2022/01/08 04:04:25;;;;;;;4.50;1.05;;;;;;;3.70;73.02;99027.69;1087704;54;20050;-81
2022/01/08 04:05:29;;;;;;;4.50;1.63;;;;;;;3.72;72.89;99028.41;1087769;54;20046;-81
2022/01/08 04:06:31;;;;;;;3.50;1.20;;;;;;;3.57;74.00;99028.72;1087696;54;20038;-82
2022/01/08 04:07:37;;;;;;;3.10;0.98;;;;;;;3.70;73.58;99030.34;1088007;54;20018;-83
2022/01/08 04:08:39;;;;;;;4.97;1.50;;;;;;;3.65;73.96;99029.88;1088798;39;20618;-82
2022/01/08 04:09:45;;;;;;;2.90;1.20;;;;;;;3.63;74.05;99024.75;1087993;54;20030;-82
2022/01/08 04:10:46;;;;;;;4.78;1.50;;;;;;;3.61;74.61;99024.03;1087973;54;20035;-82
2022/01/08 04:11:51;;;;;;;4.13;1.38;;;;;;;3.54;75.14;99022.84;1091383;46;20069;-81
2022/01/08 04:12:56;;;;;;;5.00;1.35;;;;;;;3.55;74.89;99028.00;1088066;54;20079;-82
2022/01/08 04:14:00;;;;;;;3.80;1.33;;;;;;;3.43;75.81;99026.34;1088076;54;20038;-82
2022/01/08 04:15:08;;;;;;;3.38;1.27;;;;;;;3.50;75.63;99031.97;1087597;54;20041;-81
2022/01/08 04:16:15;;;;;;;2.63;1.00;;;;;;;3.47;75.88;99033.06;1088048;39;20686;-83
2022/01/08 04:17:19;;;;;;;3.78;1.50;;;;;;;3.35;76.83;99039.34;1087965;54;20038;-83
2022/01/08 04:18:34;;;;;;;3.25;1.33;;;;;;;3.36;77.09;99033.91;1087923;54;20041;-81
2022/01/08 04:19:50;;;;;;;3.80;1.20;;;;;;;3.28;77.97;99039.84;1087850;54;20065;-83
2022/01/08 04:21:27;;;;;;;2.92;1.10;;;;;;;3.38;77.38;99039.09;1090016;39;20734;-85
2022/01/08 04:22:55;;;;;;;2.63;1.00;;;;;;;3.30;78.10;99033.59;1087959;54;20030;-82
2022/01/08 04:24:10;;;;;;;3.78;1.20;;;;;;;3.14;78.57;99040.06;1087937;54;20086;-81
2022/01/08 04:25:27;;;;;;;6.55;1.88;;;;;;;3.21;78.73;99035.97;1091637;47;20015;-83
2022/01/08 04:26:40;;;;;;;3.78;1.20;;;;;;;3.12;78.88;99042.84;1087500;54;20037;-82
2022/01/08 04:27:56;;;;;;;2.78;1.10;;;;;;;3.07;79.37;99052.09;1087498;54;20082;-81
2022/01/08 04:29:07;;;;;;;3.55;1.13;;;;;;;3.16;78.63;99043.44;1087578;54;20030;-80
2022/01/08 04:30:23;;;;;;;3.42;1.30;;;;;;;3.01;79.54;99052.59;1087945;39;20677;-79
2022/01/08 04:31:33;;;;;;;4.00;1.60;;;;;;;3.00;79.99;99053.53;1087557;54;20094;-79
2022/01/08 04:32:47;;;;;;;4.18;1.33;;;;;;;3.05;79.55;99043.44;1087524;54;20059;-81
2022/01/08 04:33:53;;;;;;;3.78;1.52;;;;;;;3.08;79.25;99049.31;1087705;54;20034;-81
2022/01/08 04:34:54;;;;;;;3.25;1.38;;;;;;;3.03;79.92;99050.66;1087856;54;20041;-81
2022/01/08 04:35:58;;;;;;;3.88;1.50;;;;;;;3.04;79.47;99052.34;1087882;54;20055;-81
2022/01/08 04:37:03;;;;;;;2.65;1.40;;;;;;;3.11;79.52;99049.09;1088128;54;20035;-82
2022/01/08 04:38:12;;;;;;;4.15;1.73;;;;;;;3.19;79.12;99055.56;1091154;39;20583;-85
2022/01/08 04:39:16;;;;;;;4.35;1.90;;;;;;;3.05;79.32;99054.88;1088230;54;20030;-83
2022/01/08 04:40:19;;;;;;;4.30;1.95;;;;;;;3.05;79.56;99060.16;1088409;54;20022;-81
2022/01/08 04:41:25;;;;;;;4.03;1.70;;;;;;;2.89;80.47;99059.66;1093780;39;20630;-84
2022/01/08 04:42:28;;;;;;;3.70;1.60;;;;;;;3.05;79.96;99069.84;1088460;54;20015;-83
2022/01/08 04:44:11;;;;;;;3.30;1.63;;;;;;;2.95;80.64;99070.56;1088344;54;20041;-83
2022/01/08 04:45:17;;;;;;;4.60;1.90;;;;;;;2.93;80.99;99071.66;1088466;54;20055;-82
2022/01/08 04:46:19;;;;;;;3.80;1.88;;;;;;;2.77;81.17;99069.38;1088361;54;20041;-82
2022/01/08 04:47:36;;;;;;;3.65;1.73;;;;;;;2.72;81.80;99080.28;1088380;54;20034;-83
2022/01/08 04:48:38;;;;;;;3.60;1.80;;;;;;;2.75;81.77;99071.28;1087866;54;20031;-83
2022/01/08 04:49:43;;;;;;;3.60;1.60;;;;;;;2.78;81.43;99077.19;1088240;54;20091;-81
2022/01/08 04:50:45;;;;;;;3.88;1.55;;;;;;;2.78;81.62;99073.69;1088321;54;20041;-83
2022/01/08 04:51:49;;;;;;;4.30;1.85;;;;;;;2.75;81.89;99084.47;1088324;54;20022;-83
2022/01/08 04:52:57;;;;;;;3.83;1.52;;;;;;;2.72;82.44;99087.38;1088293;54;20038;-83
2022/01/08 04:54:04;;;;;;;4.65;1.80;;;;;;;2.77;81.92;99090.50;1088443;54;20071;-83
2022/01/08 04:55:12;;;;;;;3.42;1.73;;;;;;;2.77;82.01;99095.75;1088288;54;20107;-83
2022/01/08 04:56:14;;;;;;;3.80;2.00;;;;;;;2.82;81.69;99085.72;1088284;54;20041;-83
2022/01/08 04:57:23;;;;;;;3.53;1.73;;;;;;;2.78;81.85;99094.81;1088133;54;20065;-86
2022/01/08 04:58:27;;;;;;;3.05;1.67;;;;;;;2.71;82.10;99099.72;1088300;54;20034;-82
2022/01/08 04:59:31;;;;;;;4.70;1.58;;;;;;;2.72;82.20;99105.84;1088177;54;20041;-84
2022/01/08 05:00:40;;;;;;;4.88;1.70;;;;;;;2.63;82.55;99102.97;1089696;39;20673;-83
2022/01/08 05:01:45;;;;;;;3.83;1.58;;;;;;;2.61;82.18;99114.56;1091083;39;20598;-81
2022/01/08 05:02:47;;;;;;;4.38;1.80;;;;;;;2.58;82.18;99106.91;1088358;54;20015;-84
2022/01/08 05:03:51;;;;;;;3.90;1.60;;;;;;;2.51;82.41;99119.72;1088375;54;20080;-83
2022/01/08 05:04:54;;;;;;;3.47;1.50;;;;;;;2.50;82.54;99116.22;1088334;54;20118;-83
2022/01/08 05:06:00;;;;;;;4.22;1.83;;;;;;;2.47;82.95;99110.34;1089281;39;20738;-83
2022/01/08 05:07:01;;;;;;;4.53;1.58;;;;;;;2.42;83.18;99115.13;1088116;54;20033;-81
2022/01/08 05:08:08;;;;;;;3.60;1.60;;;;;;;2.40;82.99;99120.53;1088201;54;20456;-84
2022/01/08 05:09:15;;;;;;;3.40;1.50;;;;;;;2.31;83.42;99126.50;1088198;54;20034;-83
2022/01/08 05:10:17;;;;;;;3.88;1.75;;;;;;;2.23;83.61;99123.56;1088271;54;20111;-83
2022/01/08 05:11:21;;;;;;;3.78;1.50;;;;;;;2.23;83.53;99128.84;1088033;54;20053;-83
2022/01/08 05:12:23;;;;;;;5.03;1.70;;;;;;;2.24;83.69;99127.88;1088088;54;20034;-84
2022/01/08 05:13:27;;;;;;;3.83;1.60;;;;;;;2.29;83.42;99126.59;1088124;54;20054;-82
2022/01/08 05:14:32;;;;;;;3.63;1.50;;;;;;;2.24;83.95;99127.88;1088218;54;20037;-84
2022/01/08 05:15:41;;;;;;;3.80;1.77;;;;;;;2.22;83.85;99132.47;1088353;54;20018;-85
2022/01/08 05:16:44;;;;;;;4.70;1.80;;;;;;;2.25;83.66;99135.72;1088312;54;20702;-85
2022/01/08 05:19:43;;;;;;;3.10;1.40;;;;;;;2.32;83.42;99142.19;1088264;54;20002;-83
2022/01/08 05:20:54;;;;;;;3.33;1.60;;;;;;;2.27;83.77;99144.31;1088668;39;20334;-83
2022/01/08 05:21:58;;;;;;;3.08;1.42;;;;;;;2.29;83.66;99139.78;1088152;54;20037;-83
2022/01/08 05:23:05;;;;;;;4.53;2.10;;;;;;;2.34;83.49;99136.81;1088246;54;20031;-83
2022/01/08 05:24:10;;;;;;;3.63;1.30;;;;;;;2.31;83.82;99143.16;1088121;54;20041;-81
2022/01/08 05:25:20;;;;;;;4.50;1.60;;;;;;;2.33;83.94;99146.53;1087994;54;20034;-83
2022/01/08 05:26:28;;;;;;;3.42;1.65;;;;;;;2.37;83.81;99138.38;1088053;54;20037;-83
2022/01/08 05:27:34;;;;;;;3.75;1.50;;;;;;;2.34;83.95;99139.44;1088253;54;20025;-84
2022/01/08 05:28:48;;;;;;;3.03;1.50;;;;;;;2.45;83.71;99142.13;1088373;54;20038;-84
2022/01/08 05:32:16;;;;;;;3.10;1.40;;;;;;;2.45;83.67;99157.13;1087498;54;21185;-82
2022/01/08 05:33:21;;;;;;;3.83;1.58;;;;;;;2.50;83.54;99153.16;1088141;54;20034;-80
2022/01/08 05:34:35;;;;;;;3.63;1.50;;;;;;;2.56;83.56;99151.88;1087978;54;20090;-81
2022/01/08 05:35:40;;;;;;;5.40;1.95;;;;;;;2.69;82.95;99162.34;1087324;54;20641;-81
2022/01/08 05:36:51;;;;;;;3.72;1.30;;;;;;;2.79;82.60;99154.56;1088823;46;20035;-83
2022/01/08 05:38:01;;;;;;;4.55;1.48;;;;;;;2.77;82.80;99161.75;1088257;54;20022;-82
2022/01/08 05:39:13;;;;;;;3.58;1.20;;;;;;;2.72;83.11;99163.91;1091019;39;20717;-81
2022/01/08 05:40:27;;;;;;;2.63;1.00;;;;;;;2.84;82.69;99162.13;1088122;54;20057;-81
2022/01/08 05:41:39;;;;;;;2.38;0.90;;;;;;;2.89;82.48;99160.84;1089639;46;20098;-85
2022/01/08 05:42:52;;;;;;;2.00;0.60;;;;;;;2.89;82.46;99174.03;1088198;54;20019;-84
2022/01/08 05:43:53;;;;;;;1.55;0.60;;;;;;;2.96;82.13;99177.88;1088263;54;20058;-82
2022/01/08 05:45:05;;;;;;;2.25;0.70;;;;;;;2.99;81.99;99178.63;1088114;54;20035;-82
2022/01/08 05:46:07;;;;;;;1.63;0.50;;;;;;;2.94;82.21;99173.69;1088156;54;20054;-81
2022/01/08 05:47:13;;;;;;;2.17;0.60;;;;;;;3.07;81.88;99171.75;1088152;54;20047;-81
2022/01/08 05:48:19;;;;;;;2.67;0.80;;;;;;;3.01;82.02;99187.25;1088061;54;20060;-80
2022/01/08 05:49:21;;;;;;;2.13;0.70;;;;;;;3.07;81.75;99181.50;1088240;54;20040;-83
2022/01/08 05:50:25;;;;;;;2.13;0.60;;;;;;;2.99;81.76;99186.53;1088139;54;20037;-81
2022/01/08 05:51:27;;;;;;;1.90;0.63;;;;;;;3.07;81.66;99197.34;1088112;54;20042;-81
2022/01/08 05:52:31;;;;;;;5.22;1.13;;;;;;;3.15;81.53;99202.06;1088089;54;20065;-80
2022/01/08 05:53:35;;;;;;;1.58;0.60;;;;;;;3.18;81.33;99200.00;1087973;54;21094;-81
2022/01/08 05:54:48;;;;;;;2.63;0.60;;;;;;;3.08;81.29;99206.97;1088182;54;20415;-80
2022/01/08 05:55:52;;;;;;;2.08;0.60;;;;;;;3.07;81.35;99206.09;1088078;54;20060;-80
2022/01/08 05:56:57;;;;;;;1.70;0.65;;;;;;;2.98;81.51;99217.38;1087783;54;20449;-80
2022/01/08 05:58:02;;;;;;;2.42;0.93;;;;;;;2.99;81.42;99234.06;1087962;54;20066;-80
2022/01/08 05:59:03;;;;;;;2.83;0.80;;;;;;;2.91;81.37;99232.84;1087894;54;20026;-80
2022/01/08 06:00:09;;;;;;;2.10;0.90;;;;;;;2.79;81.04;99233.75;1087945;54;20042;-80
2022/01/08 06:01:11;;;;;;;2.97;1.30;;;;;;;2.68;81.06;99241.63;1087895;54;20038;-79
2022/01/08 06:02:15;;;;;;;3.08;1.60;;;;;;;2.54;81.10;99240.88;1088156;39;20343;-80
2022/01/08 06:03:19;;;;;;;4.43;2.00;;;;;;;2.44;81.17;99245.16;1087704;54;20615;-79
2022/01/08 06:04:22;;;;;;;3.67;1.90;;;;;;;2.43;81.11;99262.75;1091306;46;20034;-80
2022/01/08 06:05:26;;;;;;;2.88;1.58;;;;;;;2.36;81.04;99279.16;1091665;39;20353;-79
2022/01/08 06:06:29;;;;;;;3.55;1.90;;;;;;;2.34;81.00;99266.91;1091003;39;20596;-80
2022/01/08 06:07:33;;;;;;;3.35;2.10;;;;;;;2.24;81.19;99268.53;1087734;54;20041;-79
2022/01/08 06:08:34;;;;;;;3.55;2.22;;;;;;;2.24;81.44;99271.16;1087812;54;20729;-80
2022/01/08 06:09:39;;;;;;;3.50;2.25;;;;;;;2.23;81.75;99269.47;1087727;54;20026;-80
2022/01/08 06:10:40;;;;;;;3.80;2.75;;;;;;;2.22;81.79;99278.34;1088292;46;20057;-80
2022/01/08 06:11:47;;;;;;;3.55;2.20;;;;;;;2.16;81.79;99284.06;1090339;39;20230;-79
2022/01/08 06:12:53;;;;;;;3.80;2.40;;;;;;;2.12;81.46;99282.59;1087776;54;20041;-79
2022/01/08 06:13:54;;;;;;;3.67;2.42;;;;;;;2.07;81.83;99290.00;1087731;54;20065;-81
2022/01/08 06:14:58;;;;;;;4.60;2.80;;;;;;;2.06;82.17;99299.69;1087703;54;20038;-82
2022/01/08 06:16:00;;;;;;;4.10;2.60;;;;;;;2.10;82.09;99308.22;1087901;54;20061;-81
2022/01/08 06:17:05;;;;;;;4.00;2.65;;;;;;;2.17;81.85;99306.84;1088002;54;20030;-83
2022/01/08 06:18:06;;;;;;;5.35;3.08;;;;;;;2.08;81.74;99318.06;1088243;54;20047;-83
2022/01/08 06:19:15;;;;;;;4.05;2.60;;;;;;;2.00;81.86;99311.50;1088379;39;21084;-79
2022/01/08 06:20:19;;;;;;;4.40;2.70;;;;;;;2.01;81.77;99312.38;1088126;54;20041;-82
2022/01/08 06:21:21;;;;;;;4.13;2.90;;;;;;;2.01;81.89;99329.03;1088501;46;20057;-80
2022/01/08 06:22:25;;;;;;;4.57;3.00;;;;;;;1.96;82.31;99328.50;1087879;54;21137;-81
2022/01/08 06:23:27;;;;;;;4.85;2.92;;;;;;;1.85;82.39;99329.25;1087920;54;20065;-80
2022/01/08 06:24:33;;;;;;;3.90;2.67;;;;;;;1.90;82.17;99330.72;1087696;54;20034;-80
2022/01/08 06:25:35;;;;;;;4.70;3.13;;;;;;;1.92;81.95;99332.28;1087849;54;20054;-81
2022/01/08 06:26:54;;;;;;;4.75;3.08;;;;;;;1.92;81.86;99337.56;1087810;54;20714;-80
2022/01/08 06:27:57;;;;;;;4.50;3.13;;;;;;;1.94;82.24;99348.84;1087809;54;20039;-81
2022/01/08 06:29:02;;;;;;;4.63;3.20;;;;;;;1.90;82.28;99357.91;1088280;54;20026;-84
2022/01/08 06:30:09;;;;;;;4.20;2.83;;;;;;;2.02;81.81;99364.97;1088155;54;20046;-82
2022/01/08 06:31:12;;;;;;;4.60;3.20;;;;;;;1.97;81.84;99364.47;1088352;54;20062;-82
2022/01/08 06:32:19;;;;;;;4.68;2.92;;;;;;;1.91;82.09;99380.69;1088269;54;20034;-83
2022/01/08 06:33:23;;;;;;;4.65;2.88;;;;;;;1.79;82.41;99378.94;1088310;54;20034;-83
2022/01/08 06:34:37;;;;;;;4.35;3.08;;;;;;;1.84;82.45;99380.28;1088207;54;20030;-82
2022/01/08 06:35:42;;;;;;;4.70;3.05;;;;;;;1.83;82.55;99393.56;1089046;46;20039;-83
2022/01/08 06:36:47;;;;;;;4.50;3.17;;;;;;;1.79;82.25;99386.84;1088009;54;20018;-80
2022/01/08 06:37:48;;;;;;;5.65;3.17;;;;;;;1.77;82.56;99394.00;1087946;54;20030;-84
2022/01/08 06:38:53;;;;;;;4.43;2.92;;;;;;;1.74;82.85;99405.59;1088324;54;20031;-84
2022/01/08 06:39:55;;;;;;;4.30;2.85;;;;;;;1.82;82.77;99410.31;1088016;54;20038;-81
2022/01/08 06:40:59;;;;;;;4.30;2.92;;;;;;;1.81;82.61;99416.53;1087853;54;20042;-80
2022/01/08 06:42:04;;;;;;;4.13;2.83;;;;;;;1.79;82.65;99426.38;1087864;54;20041;-84
2022/01/08 06:43:09;;;;;;;4.30;3.03;;;;;;;1.77;82.64;99429.09;1087986;54;20046;-81
2022/01/08 06:44:11;;;;;;;5.38;3.28;;;;;;;1.73;82.91;99434.66;1091461;46;20054;-82
2022/01/08 06:47:08;;;;;;;4.80;3.08;;;;;;;1.70;82.99;99436.56;1088852;46;20011;-81
2022/01/08 06:48:09;;;;;;;5.13;3.10;;;;;;;1.65;83.19;99443.94;1087738;54;20086;-80
2022/01/08 06:49:14;;;;;;;4.53;2.95;;;;;;;1.65;83.51;99453.66;1087794;54;20029;-82
2022/01/08 06:50:19;;;;;;;4.63;2.92;;;;;;;1.69;83.30;99445.44;1090272;46;20027;-81
2022/01/08 06:51:20;;;;;;;4.28;2.88;;;;;;;1.77;82.88;99457.25;1090718;39;20575;-81
2022/01/08 06:52:24;;;;;;;4.28;2.83;;;;;;;1.75;82.85;99469.69;1087383;54;20041;-81
2022/01/08 06:53:26;;;;;;;4.10;2.80;;;;;;;1.75;82.71;99467.03;1087266;54;20034;-81
2022/01/08 06:54:30;;;;;;;4.00;2.67;;;;;;;1.71;82.91;99469.03;1089138;39;20224;-81
2022/01/08 06:55:31;;;;;;;4.75;3.10;;;;;;;1.68;83.41;99472.72;1087248;54;20061;-80
2022/01/08 06:56:36;;;;;;;4.32;2.50;;;;;;;1.70;83.02;99476.09;1087001;54;20139;-82
2022/01/08 06:57:40;;;;;;;3.88;2.40;;;;;;;1.64;82.96;99478.31;1087547;54;20026;-81
2022/01/08 06:58:45;;;;;;;4.20;2.53;;;;;;;1.66;82.64;99485.16;1087734;54;20014;-81
2022/01/08 07:07:19;;;;;;;4.03;2.50;;;;;;;1.74;82.37;99511.00;1087968;54;20038;-83
2022/01/08 07:08:21;;;;;;;3.95;2.30;;;;;;;1.73;82.33;99524.28;1088262;54;20777;-81
2022/01/08 07:09:26;;;;;;;4.18;2.40;;;;;;;1.73;82.22;99519.00;1088249;54;20027;-83
2022/01/08 07:10:28;;;;;;;4.10;2.30;;;;;;;1.76;82.19;99524.09;1088267;54;20045;-83
2022/01/08 07:12:40;;;;;;;3.20;1.77;;;;;;;1.71;82.13;99525.22;1092956;39;20404;-81
2022/01/08 07:13:48;;;;;;;4.20;2.35;;;;;;;1.70;82.07;99547.25;1088282;54;20057;-84
2022/01/08 07:14:52;;;;;;;3.53;2.00;;;;;;;1.73;81.82;99540.09;1087896;54;20034;-80
2022/01/08 07:15:53;;;;;;;3.47;2.00;;;;;;;1.76;82.00;99545.16;1087955;54;20030;-81
2022/01/08 07:16:57;;;;;;;3.80;2.10;;;;;;;1.76;81.97;99551.25;1088038;54;20019;-82
2022/01/08 07:18:19;;;;;;;4.05;1.83;;;;;;;1.77;81.74;99554.75;1088146;54;20063;-84
2022/01/08 07:19:21;;;;;;;3.65;1.77;;;;;;;1.84;81.36;99556.88;1088128;54;20157;-82
2022/01/08 07:20:27;;;;;;;3.20;1.65;;;;;;;1.80;81.32;99557.19;1088092;54;20027;-84
2022/01/08 07:21:31;;;;;;;3.30;1.80;;;;;;;1.79;81.41;99560.78;1088292;54;20042;-83
2022/01/08 07:22:40;;;;;;;3.22;1.70;;;;;;;1.84;81.26;99558.69;1088121;54;20029;-83
2022/01/08 07:23:41;;;;;;;3.55;1.80;;;;;;;1.79;80.94;99560.78;1088032;54;20069;-81
2022/01/08 07:24:48;;;;;;;4.13;1.83;;;;;;;1.71;81.22;99559.47;1087785;54;20772;-83
2022/01/08 07:25:50;;;;;;;3.35;1.70;;;;;;;1.74;81.11;99562.88;1088230;54;20041;-82
2022/01/08 07:27:21;;;;;;;3.90;1.80;;;;;;;1.70;81.04;99563.06;1093696;39;20598;-85
2022/01/08 07:28:27;;;;;;;3.53;1.90;;;;;;;1.74;81.09;99568.13;1088268;54;20085;-83
2022/01/08 07:30:54;;;;;;;3.22;1.50;;;;;;;1.75;81.01;99583.00;1088079;54;20036;-83
2022/01/08 07:34:20;;;;;;;3.95;1.80;;;;;;;1.77;80.77;99594.31;1088081;54;20101;-83
2022/01/08 07:35:34;;;;;;;3.10;1.50;;;;;;;1.79;80.54;99601.16;1088026;54;20042;-82
2022/01/08 07:36:51;;;;;;;3.17;1.58;;;;;;;1.71;80.82;99601.66;1100224;39;20720;-80
2022/01/08 07:37:56;;;;;;;4.07;1.52;;;;;;;1.74;80.71;99605.91;1087499;54;20030;-83
2022/01/08 07:39:02;;;;;;;3.20;1.50;;;;;;;1.84;80.46;99606.13;1087684;54;20054;-81
2022/01/08 07:40:09;;;;;;;3.22;1.52;;;;;;;1.83;80.71;99612.34;1088489;39;20587;-81
2022/01/08 07:41:21;;;;;;;3.08;1.48;;;;;;;1.86;80.81;99617.44;1087966;54;20042;-82
2022/01/08 07:42:25;;;;;;;3.05;1.55;;;;;;;1.95;80.52;99622.09;1088020;54;20086;-81
2022/01/08 07:43:30;;;;;;;3.55;1.63;;;;;;;1.90;80.62;99625.97;1087717;54;20041;-80
2022/01/08 07:44:34;;;;;;;3.90;1.92;;;;;;;1.87;80.93;99635.78;1087778;54;20045;-80
2022/01/08 07:45:38;;;;;;;3.20;1.70;;;;;;;1.86;81.01;99625.34;1087956;54;20055;-82
2022/01/08 07:46:44;;;;;;;3.65;1.73;;;;;;;1.90;81.06;99632.09;1088044;54;20046;-81
2022/01/08 07:47:47;;;;;;;3.92;1.50;;;;;;;1.98;80.69;99636.88;1087826;54;20030;-81
2022/01/08 07:49:00;;;;;;;3.30;1.80;;;;;;;1.89;80.97;99646.22;1088109;54;20014;-81
2022/01/08 07:50:02;;;;;;;3.42;1.83;;;;;;;1.96;80.84;99641.38;1087846;54;20057;-82
2022/01/08 07:51:07;;;;;;;3.63;2.03;;;;;;;1.98;80.75;99655.31;1087946;54;20030;-81
2022/01/08 07:52:09;;;;;;;3.75;1.65;;;;;;;2.03;80.77;99637.44;1087870;54;20038;-81
2022/01/08 07:53:13;;;;;;;4.07;1.73;;;;;;;2.00;81.16;99650.81;1088073;54;20041;-80
2022/01/08 07:54:15;;;;;;;3.38;1.60;;;;;;;2.01;81.24;99649.88;1087753;54;20038;-81
2022/01/08 07:55:19;;;;;;;2.92;1.50;;;;;;;2.01;81.19;99658.59;1087825;54;20042;-81
2022/01/08 07:56:23;;;;;;;3.78;2.00;;;;;;;2.06;81.24;99657.47;1087775;54;20042;-81
2022/01/08 07:57:25;;;;;;;4.00;1.83;;;;;;;2.08;81.15;99661.69;1087647;54;20034;-82
2022/01/08 07:58:29;;;;;;;3.47;1.80;;;;;;;2.05;81.38;99661.06;1088057;54;20034;-83
2022/01/08 07:59:33;;;;;;;2.92;1.40;;;;;;;2.03;81.27;99674.34;1092506;39;20594;-83
2022/01/08 08:00:39;;;;;;;3.53;1.88;;;;;;;2.03;81.44;99671.72;1088216;54;20090;-81
2022/01/08 08:01:40;;;;;;;3.53;1.83;;;;;;;2.05;81.42;99676.88;1088085;54;20038;-84
2022/01/08 08:02:44;;;;;;;3.65;1.85;;;;;;;2.21;81.14;99668.81;1089402;46;20026;-82
2022/01/08 08:03:48;;;;;;;4.43;2.00;;;;;;;2.26;81.00;99669.34;1088071;54;20019;-84
2022/01/08 08:04:50;;;;;;;3.72;1.80;;;;;;;2.29;80.94;99679.72;1087946;54;20038;-84
2022/01/08 08:05:54;;;;;;;3.65;1.90;;;;;;;2.39;80.68;99677.28;1088104;54;20786;-83
2022/01/08 08:06:57;;;;;;;3.83;2.00;;;;;;;2.31;80.82;99677.81;1100764;39;20650;-83
2022/01/08 08:08:01;;;;;;;3.88;2.13;;;;;;;2.29;80.78;99675.25;1088198;54;20075;-82
2022/01/08 08:09:03;;;;;;;5.80;2.40;;;;;;;2.24;80.84;99681.78;1088013;54;20046;-84
2022/01/08 08:10:10;;;;;;;3.88;2.25;;;;;;;2.32;80.68;99685.63;1087923;54;20030;-83
2022/01/08 08:11:14;;;;;;;4.40;2.63;;;;;;;2.45;80.64;99690.09;1088121;54;20023;-84
2022/01/08 08:12:33;;;;;;;4.65;2.50;;;;;;;2.33;80.89;99695.22;1088108;54;20046;-83
2022/01/08 08:13:37;;;;;;;4.20;2.55;;;;;;;2.45;80.66;99700.66;1088177;54;20030;-79
2022/01/08 08:14:42;;;;;;;4.75;2.45;;;;;;;2.56;80.31;99692.03;1089627;47;20045;-82
2022/01/08 08:15:46;;;;;;;3.90;2.45;;;;;;;2.62;80.33;99695.09;1088104;54;20031;-83
2022/01/08 08:16:53;;;;;;;4.60;2.75;;;;;;;2.68;80.08;99695.63;1088082;54;20056;-83
2022/01/08 08:18:04;;;;;;;3.45;2.10;;;;;;;2.76;80.01;99698.59;1088036;54;20022;-81
2022/01/08 08:19:05;;;;;;;;;;;;;;;2.64;79.91;99693.22;1088163;54;20030;-80